Time;durP1;ratioP1;P1;durP2;ratioP2;P2;SDS_P1;SDS_P2;PMS_P1;PMS_P2;Temp;Humidity;BMP_temperature;BMP_pressure;BME280_temperature;BME280_humidity;BME280_pressure;Samples;Min_cycle;Max_cycle;Signal;HPM_P1;HPM_P2
2023/07/16 00:01:54;;;;;;;1.02;0.90;;;;;;;20.38;100.00;100619.78;6249708;28;20132;-72
2023/07/16 00:04:55;;;;;;;2.22;0.73;;;;;;;20.36;100.00;100617.25;6249963;28;20046;-73
2023/07/16 00:07:57;;;;;;;3.15;1.08;;;;;;;20.36;100.00;100595.06;6249781;28;20046;-73
2023/07/16 00:11:00;;;;;;;1.45;1.10;;;;;;;20.30;100.00;100566.28;6249795;28;20131;-73
2023/07/16 00:14:01;;;;;;;2.15;1.10;;;;;;;20.32;100.00;100567.00;6249540;28;20442;-73
2023/07/16 00:17:03;;;;;;;2.45;0.80;;;;;;;20.28;100.00;100571.78;6249991;28;20100;-73
2023/07/16 00:20:06;;;;;;;4.68;1.27;;;;;;;20.25;100.00;100606.75;6253660;28;20060;-73
2023/07/16 00:23:07;;;;;;;2.40;1.00;;;;;;;20.30;100.00;100600.97;6254310;28;20046;-73
2023/07/16 00:26:10;;;;;;;3.28;1.38;;;;;;;20.29;100.00;100618.84;6254316;28;20045;-73
2023/07/16 00:29:11;;;;;;;2.58;0.82;;;;;;;20.32;100.00;100607.88;6254350;28;20038;-73
2023/07/16 00:32:13;;;;;;;1.63;0.80;;;;;;;20.29;100.00;100589.47;6254109;28;20053;-73
2023/07/16 00:35:14;;;;;;;2.17;1.08;;;;;;;20.28;100.00;100627.84;6251799;28;20429;-73
2023/07/16 00:38:17;;;;;;;3.88;1.15;;;;;;;20.25;100.00;100633.47;6254127;28;20056;-73
2023/07/16 00:41:20;;;;;;;3.42;0.88;;;;;;;20.23;100.00;100630.94;6253614;28;20049;-73
2023/07/16 00:44:22;;;;;;;2.88;1.10;;;;;;;20.29;100.00;100640.19;6253743;28;20561;-73
2023/07/16 00:47:23;;;;;;;1.10;0.73;;;;;;;20.23;100.00;100638.13;6253889;28;20049;-73
2023/07/16 00:50:25;;;;;;;2.55;0.90;;;;;;;20.18;100.00;100611.88;6253667;28;20361;-73
2023/07/16 00:53:27;;;;;;;4.93;1.10;;;;;;;20.14;100.00;100605.13;6253510;28;20056;-73
2023/07/16 00:56:30;;;;;;;1.58;1.02;;;;;;;20.16;100.00;100613.00;6253543;28;20349;-73
2023/07/16 00:59:31;;;;;;;1.95;0.93;;;;;;;20.08;100.00;100616.41;6253138;28;20042;-73
2023/07/16 01:02:33;;;;;;;5.43;1.35;;;;;;;20.10;100.00;100613.59;6253391;28;20045;-73
2023/07/16 01:05:39;;;;;;;2.10;1.13;;;;;;;20.08;100.00;100620.91;6253647;28;20445;-74
2023/07/16 01:08:46;;;;;;;1.20;0.90;;;;;;;20.05;100.00;100637.19;6253161;28;20046;-73
2023/07/16 01:11:50;;;;;;;1.10;0.85;;;;;;;20.08;100.00;100639.59;6253190;28;20049;-72
2023/07/16 01:14:53;;;;;;;1.65;1.17;;;;;;;20.07;100.00;100659.22;6252974;28;20054;-73
2023/07/16 01:17:54;;;;;;;2.05;1.13;;;;;;;20.04;100.00;100651.53;6253067;28;20465;-73
2023/07/16 01:20:55;;;;;;;6.45;1.10;;;;;;;20.11;100.00;100653.44;6252995;28;20161;-73
2023/07/16 01:24:05;;;;;;;1.40;1.10;;;;;;;20.02;100.00;100657.84;6252842;28;20045;-73
2023/07/16 01:27:25;;;;;;;1.48;1.10;;;;;;;19.95;100.00;100655.91;6252898;28;20104;-73
2023/07/16 01:30:28;;;;;;;1.38;0.82;;;;;;;19.90;100.00;100656.34;6252469;28;20077;-73
2023/07/16 01:33:30;;;;;;;2.63;1.10;;;;;;;19.91;100.00;100671.34;6252461;28;20073;-73
2023/07/16 01:36:34;;;;;;;2.83;1.25;;;;;;;19.94;100.00;100670.22;6252865;28;20053;-73
2023/07/16 01:39:35;;;;;;;2.63;0.98;;;;;;;19.95;100.00;100678.09;6252418;28;20430;-73
2023/07/16 01:42:37;;;;;;;3.13;1.13;;;;;;;19.95;100.00;100658.56;6252529;28;20049;-73
2023/07/16 01:45:40;;;;;;;3.35;1.00;;;;;;;19.89;100.00;100649.31;6252554;28;20056;-73
2023/07/16 01:48:41;;;;;;;1.90;0.93;;;;;;;19.91;100.00;100663.34;6252307;28;20353;-73
2023/07/16 01:51:42;;;;;;;1.30;0.90;;;;;;;19.90;100.00;100664.34;6252208;28;20056;-73
2023/07/16 01:54:44;;;;;;;1.92;1.05;;;;;;;19.91;100.00;100657.19;6252279;28;20053;-73
2023/07/16 01:57:45;;;;;;;1.75;1.17;;;;;;;19.86;100.00;100646.09;6252186;28;20362;-73
2023/07/16 02:00:48;;;;;;;6.43;1.42;;;;;;;19.88;100.00;100647.63;6252001;28;20057;-73
2023/07/16 02:03:50;;;;;;;1.48;0.85;;;;;;;19.86;100.00;100648.78;6251938;28;20103;-73
2023/07/16 02:06:51;;;;;;;1.60;1.20;;;;;;;19.80;100.00;100647.50;6251934;28;20449;-73
2023/07/16 02:09:52;;;;;;;3.80;0.80;;;;;;;19.81;100.00;100645.69;6250584;28;20065;-73
2023/07/16 02:12:54;;;;;;;2.28;1.10;;;;;;;19.74;100.00;100650.75;6251815;28;20053;-74
2023/07/16 02:15:57;;;;;;;6.20;1.15;;;;;;;19.67;100.00;100645.16;6251321;28;20327;-73
2023/07/16 02:18:58;;;;;;;1.15;1.00;;;;;;;19.64;100.00;100642.78;6251881;28;20046;-73
2023/07/16 02:21:59;;;;;;;1.23;0.90;;;;;;;19.66;100.00;100638.13;6251589;28;20048;-73
2023/07/16 02:25:01;;;;;;;0.98;0.85;;;;;;;19.56;100.00;100629.28;6251307;28;20045;-73
2023/07/16 02:28:03;;;;;;;2.28;0.80;;;;;;;19.56;100.00;100637.28;6251710;28;20056;-73
2023/07/16 02:31:06;;;;;;;3.97;1.00;;;;;;;19.60;100.00;100641.38;6251244;28;20046;-73
2023/07/16 02:34:07;;;;;;;5.32;1.30;;;;;;;19.64;100.00;100655.25;6246937;28;20049;-73
2023/07/16 02:37:08;;;;;;;5.18;1.17;;;;;;;19.66;100.00;100656.78;6247500;28;20045;-73
2023/07/16 02:40:10;;;;;;;3.25;1.13;;;;;;;19.62;100.00;100644.75;6250749;28;20061;-73
2023/07/16 02:43:12;;;;;;;2.35;1.02;;;;;;;19.62;100.00;100633.22;6250638;28;20053;-73
2023/07/16 02:46:14;;;;;;;3.53;1.02;;;;;;;19.57;100.00;100643.44;6251376;28;20052;-73
2023/07/16 02:49:16;;;;;;;2.92;1.27;;;;;;;19.53;100.00;100650.91;6250810;28;20046;-73
2023/07/16 02:52:17;;;;;;;2.78;1.48;;;;;;;19.57;100.00;100646.09;6250669;28;20354;-73
2023/07/16 02:55:19;;;;;;;2.22;1.00;;;;;;;19.54;100.00;100657.09;6250936;28;20056;-73
2023/07/16 02:58:20;;;;;;;2.08;1.00;;;;;;;19.49;100.00;100660.16;6250792;28;20323;-73
2023/07/16 03:01:23;;;;;;;3.47;1.10;;;;;;;19.50;100.00;100664.50;6250832;28;20460;-73
2023/07/16 03:04:24;;;;;;;2.15;0.93;;;;;;;19.50;100.00;100664.50;6250275;28;20053;-73
2023/07/16 03:07:26;;;;;;;1.05;0.85;;;;;;;19.51;100.00;100675.03;6250337;28;20049;-73
2023/07/16 03:10:27;;;;;;;6.20;1.30;;;;;;;19.48;100.00;100677.13;6242468;28;20041;-73
2023/07/16 03:13:28;;;;;;;1.00;0.90;;;;;;;19.45;100.00;100677.41;6246715;28;20056;-73
2023/07/16 03:16:31;;;;;;;4.28;1.20;;;;;;;19.44;100.00;100670.38;6237755;28;20053;-74
2023/07/16 03:19:33;;;;;;;3.40;1.00;;;;;;;19.41;100.00;100666.19;6243899;28;20045;-73
2023/07/16 03:22:34;;;;;;;2.20;1.00;;;;;;;19.37;100.00;100670.13;6244327;28;20354;-73
2023/07/16 03:25:35;;;;;;;1.73;0.95;;;;;;;19.37;100.00;100670.13;6245304;28;20049;-73
2023/07/16 03:28:37;;;;;;;1.98;0.90;;;;;;;19.38;100.00;100678.97;6246179;28;20041;-73
2023/07/16 03:31:40;;;;;;;3.85;1.15;;;;;;;19.31;100.00;100684.00;6243282;28;20327;-73
2023/07/16 03:34:41;;;;;;;3.35;1.40;;;;;;;19.24;100.00;100697.03;6246487;28;20052;-70
2023/07/16 03:37:42;;;;;;;1.05;0.85;;;;;;;19.21;100.00;100696.47;6244494;28;20678;-70
2023/07/16 03:40:51;;;;;;;2.22;0.75;;;;;;;19.11;100.00;100699.13;6245208;28;20053;-73
2023/07/16 03:43:52;;;;;;;2.78;1.15;;;;;;;18.99;100.00;100701.09;6242430;28;20049;-73
2023/07/16 03:46:55;;;;;;;1.63;1.27;;;;;;;19.00;100.00;100702.75;6242208;28;20057;-73
2023/07/16 03:49:56;;;;;;;1.60;1.20;;;;;;;19.00;100.00;100712.56;6244911;28;20050;-73
2023/07/16 03:52:58;;;;;;;1.77;0.73;;;;;;;18.99;100.00;100703.75;6247305;28;20129;-73
2023/07/16 03:55:59;;;;;;;2.30;1.10;;;;;;;19.07;100.00;100710.19;6246331;28;20041;-73
2023/07/16 03:59:00;;;;;;;6.45;1.48;;;;;;;19.09;100.00;100714.41;6249766;28;20049;-73
2023/07/16 04:02:03;;;;;;;2.83;1.23;;;;;;;19.06;100.00;100728.00;6245631;28;20046;-73
2023/07/16 04:05:05;;;;;;;1.70;1.02;;;;;;;19.01;100.00;100735.56;6251946;28;20045;-73
2023/07/16 04:08:08;;;;;;;1.60;1.15;;;;;;;19.06;100.00;100733.31;6254481;28;20511;-73
2023/07/16 04:11:09;;;;;;;3.40;1.33;;;;;;;18.97;100.00;100729.66;6254043;28;20052;-73
2023/07/16 04:14:11;;;;;;;4.18;1.40;;;;;;;19.04;100.00;100742.44;6254153;28;20041;-73
2023/07/16 04:17:13;;;;;;;2.55;1.38;;;;;;;19.11;100.00;100741.75;6251401;28;20065;-73
2023/07/16 04:20:15;;;;;;;2.38;1.27;;;;;;;19.16;100.00;100742.19;6254028;28;20061;-73
2023/07/16 04:23:16;;;;;;;1.80;1.00;;;;;;;19.19;100.00;100749.06;6253459;28;20049;-73
2023/07/16 04:26:18;;;;;;;3.38;1.17;;;;;;;19.14;100.00;100752.13;6254422;28;20049;-73
2023/07/16 04:29:19;;;;;;;3.50;1.80;;;;;;;19.17;100.00;100757.19;6254029;28;20434;-73
2023/07/16 04:32:22;;;;;;;3.25;1.70;;;;;;;19.16;100.00;100757.31;6254073;28;20448;-74
2023/07/16 04:35:24;;;;;;;1.90;1.30;;;;;;;19.12;100.00;100764.78;6254157;28;20049;-74
2023/07/16 04:38:26;;;;;;;2.33;1.05;;;;;;;19.11;100.00;100768.38;6253966;28;20365;-73
2023/07/16 04:41:28;;;;;;;5.40;1.38;;;;;;;19.12;100.00;100771.88;6253745;28;20339;-73
2023/07/16 04:44:30;;;;;;;3.80;1.20;;;;;;;19.13;100.00;100769.09;6253618;28;20053;-74
2023/07/16 04:47:32;;;;;;;4.60;1.58;;;;;;;19.19;100.00;100781.88;6253941;28;20045;-73
2023/07/16 04:50:34;;;;;;;1.52;1.30;;;;;;;19.13;100.00;100784.25;6253507;28;20045;-73
2023/07/16 04:53:35;;;;;;;3.50;1.63;;;;;;;19.17;100.00;100789.19;6253533;28;20050;-73
2023/07/16 04:56:37;;;;;;;4.05;1.33;;;;;;;19.05;100.00;100789.41;6253479;28;20060;-73
2023/07/16 04:59:38;;;;;;;3.92;1.40;;;;;;;19.17;100.00;100796.31;6253661;28;20041;-73
2023/07/16 05:02:41;;;;;;;2.90;1.50;;;;;;;19.22;100.00;100791.44;6244908;28;20072;-73
2023/07/16 05:05:43;;;;;;;2.45;1.17;;;;;;;19.20;100.00;100801.38;6252470;28;20053;-73
2023/07/16 05:08:44;;;;;;;2.78;1.30;;;;;;;19.23;100.00;100796.63;6253348;28;20055;-74
2023/07/16 05:11:45;;;;;;;2.75;1.02;;;;;;;19.23;100.00;100796.63;6253025;28;20468;-73
2023/07/16 05:14:48;;;;;;;4.25;1.60;;;;;;;19.23;100.00;100793.94;6253088;28;20330;-73
2023/07/16 05:17:51;;;;;;;2.92;1.30;;;;;;;19.26;100.00;100811.50;6253033;28;20056;-73
2023/07/16 05:20:52;;;;;;;2.70;1.27;;;;;;;19.26;100.00;100808.84;6253040;28;20046;-74
2023/07/16 05:23:53;;;;;;;3.35;1.55;;;;;;;19.25;100.00;100807.97;6252729;28;20050;-74
2023/07/16 05:26:55;;;;;;;2.70;1.40;;;;;;;19.22;100.00;100810.09;6253080;28;20050;-74
2023/07/16 05:29:56;;;;;;;2.20;1.50;;;;;;;19.11;100.00;100811.00;6252753;28;20050;-73
2023/07/16 05:32:59;;;;;;;2.47;1.17;;;;;;;19.10;100.00;100816.47;6252432;28;20335;-73
2023/07/16 05:36:00;;;;;;;3.47;1.27;;;;;;;19.10;100.00;100814.66;6252723;28;20053;-73
2023/07/16 05:39:02;;;;;;;3.03;1.35;;;;;;;19.04;100.00;100811.72;6252824;28;20045;-73
2023/07/16 05:42:04;;;;;;;4.45;1.42;;;;;;;19.10;100.00;100814.66;6251831;22;20053;-70
2023/07/16 05:45:06;;;;;;;2.13;1.48;;;;;;;19.11;100.00;100812.84;6226763;28;20431;-71
2023/07/16 05:48:09;;;;;;;3.35;1.70;;;;;;;19.14;100.00;100815.25;6227733;28;20417;-70
2023/07/16 05:51:11;;;;;;;5.22;1.98;;;;;;;19.16;100.00;100819.44;6226958;28;20042;-68
2023/07/16 05:54:12;;;;;;;2.80;1.50;;;;;;;19.11;100.00;100821.66;6227481;28;20046;-70
2023/07/16 05:57:13;;;;;;;3.78;1.10;;;;;;;19.17;100.00;100826.47;6227524;28;20050;-70
2023/07/16 06:00:15;;;;;;;4.18;1.77;;;;;;;19.22;100.00;100831.41;6226448;28;20053;-71
2023/07/16 06:03:18;;;;;;;1.88;1.38;;;;;;;19.20;100.00;100828.00;6227271;28;20046;-74
2023/07/16 06:06:20;;;;;;;2.50;1.42;;;;;;;19.22;100.00;100828.72;6226798;28;20057;-74
2023/07/16 06:09:21;;;;;;;6.90;1.58;;;;;;;19.26;100.00;100836.31;6218777;28;20053;-74
2023/07/16 06:12:22;;;;;;;3.83;1.60;;;;;;;19.37;100.00;100842.50;6226427;28;20320;-74
2023/07/16 06:15:24;;;;;;;3.25;1.40;;;;;;;19.34;100.00;100845.44;6226530;28;20049;-74
2023/07/16 06:18:27;;;;;;;2.65;1.45;;;;;;;19.40;100.00;100839.59;6226912;28;20061;-74
2023/07/16 06:21:28;;;;;;;2.25;1.50;;;;;;;19.47;100.00;100851.38;6227175;28;20046;-73
2023/07/16 06:24:30;;;;;;;2.95;1.08;;;;;;;19.48;100.00;100843.25;6226818;28;20053;-73
2023/07/16 06:27:31;;;;;;;4.97;1.40;;;;;;;19.54;100.00;100836.53;6227179;28;20057;-75
2023/07/16 06:30:33;;;;;;;1.58;1.38;;;;;;;19.61;100.00;100834.16;6226518;28;20042;-73
2023/07/16 06:33:36;;;;;;;5.35;2.03;;;;;;;19.62;100.00;100841.19;6226637;28;20049;-74
2023/07/16 06:36:38;;;;;;;4.13;2.17;;;;;;;19.66;100.00;100854.09;6226299;28;20352;-76
2023/07/16 06:39:40;;;;;;;5.93;2.00;;;;;;;19.75;100.00;100845.25;6226580;28;20358;-73
2023/07/16 06:42:41;;;;;;;4.93;1.88;;;;;;;19.75;100.00;100847.09;6226356;28;20042;-74
2023/07/16 06:45:42;;;;;;;4.65;1.80;;;;;;;19.64;100.00;100857.91;6226028;28;20042;-74
2023/07/16 06:48:45;;;;;;;7.80;1.92;;;;;;;19.62;100.00;100860.72;6226533;28;20434;-74
2023/07/16 06:51:47;;;;;;;3.38;1.55;;;;;;;19.67;100.00;100858.47;6225694;28;20042;-74
2023/07/16 06:54:49;;;;;;;3.33;1.60;;;;;;;19.77;100.00;100871.81;6226051;28;20485;-74
2023/07/16 06:57:50;;;;;;;5.45;1.80;;;;;;;19.74;100.00;100870.25;6225730;28;20046;-74
2023/07/16 07:00:51;;;;;;;3.05;1.60;;;;;;;19.74;100.00;100872.09;6217752;28;20450;-74
2023/07/16 07:03:54;;;;;;;1.75;1.10;;;;;;;19.81;100.00;100878.56;6225548;28;20354;-74
2023/07/16 07:06:56;;;;;;;2.00;1.38;;;;;;;19.87;100.00;100875.34;6225924;28;20350;-74
2023/07/16 07:09:57;;;;;;;4.40;1.30;;;;;;;19.93;100.00;100885.44;6225634;28;20057;-74
2023/07/16 07:12:58;;;;;;;5.20;1.58;;;;;;;20.00;100.00;100885.75;6225210;28;20053;-74
2023/07/16 07:16:00;;;;;;;3.20;1.38;;;;;;;19.98;100.00;100890.34;6225674;28;20050;-74
2023/07/16 07:19:03;;;;;;;5.45;1.27;;;;;;;20.00;100.00;100899.91;6217701;28;20049;-73
2023/07/16 07:22:05;;;;;;;4.82;1.40;;;;;;;20.05;100.00;100901.31;6225722;28;20077;-73
2023/07/16 07:25:07;;;;;;;2.70;1.40;;;;;;;20.00;100.00;100893.75;6225875;28;20042;-74
2023/07/16 07:28:08;;;;;;;1.95;1.38;;;;;;;20.04;100.00;100905.00;6225609;28;20060;-74
2023/07/16 07:31:10;;;;;;;2.80;1.55;;;;;;;20.05;100.00;100896.84;6225637;28;20042;-74
2023/07/16 07:34:12;;;;;;;5.32;1.33;;;;;;;20.08;100.00;100896.56;6225704;28;20046;-73
2023/07/16 07:37:14;;;;;;;3.63;1.30;;;;;;;20.22;100.00;100887.28;6224819;28;20045;-74
2023/07/16 07:40:15;;;;;;;5.97;2.00;;;;;;;20.31;100.00;100891.78;6222744;28;20046;-75
2023/07/16 07:43:17;;;;;;;4.55;1.70;;;;;;;20.36;100.00;100891.38;6220916;28;20053;-73
2023/07/16 07:46:18;;;;;;;6.30;1.85;;;;;;;20.44;100.00;100888.84;6222953;28;20050;-73
2023/07/16 07:49:21;;;;;;;3.28;2.00;;;;;;;20.47;100.00;100884.06;6219092;28;20057;-73
2023/07/16 07:52:23;;;;;;;7.00;1.90;;;;;;;20.48;100.00;100899.13;6215381;28;20470;-74
2023/07/16 07:55:24;;;;;;;5.53;1.70;;;;;;;20.44;100.00;100904.84;6222802;28;20057;-72
2023/07/16 07:58:25;;;;;;;3.78;1.80;;;;;;;20.36;100.00;100904.72;6223435;28;20353;-72
2023/07/16 08:01:28;;;;;;;3.67;2.15;;;;;;;20.28;100.00;100913.41;6220964;28;20050;-73
2023/07/16 08:04:31;;;;;;;3.53;1.95;;;;;;;20.33;100.00;100904.97;6224277;28;20038;-71
2023/07/16 08:07:33;;;;;;;7.45;2.53;;;;;;;20.48;100.00;100903.59;6225455;28;20042;-74
2023/07/16 08:10:34;;;;;;;4.95;2.35;;;;;;;20.54;100.00;100910.22;6224181;28;20046;-74
2023/07/16 08:13:36;;;;;;;9.85;2.10;;;;;;;20.60;100.00;100917.63;6219149;28;20131;-74
2023/07/16 08:16:37;;;;;;;3.50;1.58;;;;;;;20.51;100.00;100922.00;6210837;28;20164;-72
2023/07/16 08:19:40;;;;;;;9.95;1.90;;;;;;;20.52;98.46;100915.66;6214052;28;20057;-71
2023/07/16 08:22:41;;;;;;;7.35;2.08;;;;;;;20.54;96.64;100921.72;6212788;28;20038;-74
2023/07/16 08:25:43;;;;;;;3.55;2.08;;;;;;;20.54;100.00;100927.06;6224654;28;20057;-72
2023/07/16 08:28:45;;;;;;;3.83;1.75;;;;;;;20.58;96.89;100928.47;6223290;28;20049;-72
2023/07/16 08:31:46;;;;;;;8.55;2.15;;;;;;;20.62;98.82;100937.03;6216144;28;20046;-72
2023/07/16 08:34:49;;;;;;;3.17;1.90;;;;;;;20.60;91.28;100931.00;6225199;28;20050;-72
2023/07/16 08:37:50;;;;;;;6.20;2.20;;;;;;;20.62;91.62;100940.56;6224913;28;20041;-72
2023/07/16 08:40:52;;;;;;;3.75;1.98;;;;;;;20.68;93.93;100931.97;6222609;28;20054;-72
2023/07/16 08:43:54;;;;;;;7.85;2.15;;;;;;;20.68;91.17;100933.81;6228139;28;20057;-73
2023/07/16 08:46:56;;;;;;;4.13;2.20;;;;;;;20.62;92.92;100937.88;6221324;28;20055;-72
2023/07/16 08:50:00;;;;;;;3.88;1.75;;;;;;;20.72;94.57;100935.19;6223296;28;20046;-72
2023/07/16 08:53:02;;;;;;;5.03;1.70;;;;;;;20.75;94.69;100937.56;6220228;28;20460;-72
2023/07/16 08:56:05;;;;;;;2.70;1.95;;;;;;;20.78;90.30;100954.16;6220130;28;20054;-75
2023/07/16 08:59:06;;;;;;;4.60;1.73;;;;;;;20.79;89.51;100938.97;6228686;28;20053;-71
2023/07/16 09:02:08;;;;;;;3.85;2.00;;;;;;;20.87;93.71;100930.25;6221783;28;20045;-72
2023/07/16 09:05:12;;;;;;;6.35;2.30;;;;;;;20.83;91.56;100950.22;6225597;28;20543;-72
2023/07/16 09:08:14;;;;;;;3.83;2.00;;;;;;;20.87;91.76;100949.78;6228894;28;20046;-72
2023/07/16 09:11:20;;;;;;;5.88;2.55;;;;;;;20.91;89.54;100948.53;6228535;28;20038;-72
2023/07/16 09:14:22;;;;;;;4.43;2.10;;;;;;;20.99;91.89;100951.31;6228682;28;20042;-72
2023/07/16 09:17:24;;;;;;;8.82;2.33;;;;;;;21.04;89.79;100942.88;6228450;28;20056;-72
2023/07/16 09:20:30;;;;;;;2.97;1.90;;;;;;;21.02;87.00;100959.03;6228643;28;20049;-72
2023/07/16 09:23:32;;;;;;;5.57;1.90;;;;;;;21.09;88.40;100943.28;6228103;28;20053;-73
2023/07/16 09:26:33;;;;;;;3.67;1.83;;;;;;;21.16;89.94;100963.06;6228562;28;20053;-72
2023/07/16 09:29:34;;;;;;;4.65;2.25;;;;;;;21.24;88.75;100954.34;6222659;28;20046;-73
2023/07/16 09:32:36;;;;;;;4.63;1.85;;;;;;;21.17;89.80;100958.59;6227487;28;20331;-72
2023/07/16 09:35:39;;;;;;;5.97;2.25;;;;;;;21.23;94.41;100958.84;6228021;28;20057;-72
2023/07/16 09:38:42;;;;;;;2.75;1.50;;;;;;;21.37;88.22;100957.56;6222819;28;20053;-72
2023/07/16 09:41:43;;;;;;;2.20;1.60;;;;;;;21.53;87.86;100956.94;6227897;28;20042;-72
2023/07/16 09:44:45;;;;;;;3.72;1.77;;;;;;;21.64;80.51;100963.91;6219598;28;20044;-73
2023/07/16 09:47:46;;;;;;;6.95;1.92;;;;;;;21.73;79.98;100969.22;6227990;28;20075;-72
2023/07/16 09:50:53;;;;;;;6.60;2.38;;;;;;;21.76;80.48;100965.41;6227317;28;20046;-73
2023/07/16 09:53:55;;;;;;;4.43;1.88;;;;;;;21.70;82.41;100958.81;6227644;28;20135;-72
2023/07/16 09:56:59;;;;;;;2.75;1.30;;;;;;;21.88;81.42;100961.53;6227663;28;20060;-73
2023/07/16 10:00:06;;;;;;;6.50;1.83;;;;;;;21.99;78.92;100965.84;6227548;28;20045;-73
2023/07/16 10:03:08;;;;;;;3.47;1.92;;;;;;;22.00;79.92;100960.34;6225670;28;20053;-73
2023/07/16 10:06:14;;;;;;;3.65;1.90;;;;;;;21.95;79.55;100967.97;6218978;28;20053;-72
2023/07/16 10:09:15;;;;;;;4.15;1.73;;;;;;;21.97;78.37;100976.69;6227176;28;20053;-72
2023/07/16 10:12:18;;;;;;;6.13;1.63;;;;;;;21.88;77.00;100972.22;6223507;28;20046;-72
2023/07/16 10:15:26;;;;;;;2.85;1.73;;;;;;;21.86;77.97;100968.03;6217871;28;20173;-72
2023/07/16 10:18:30;;;;;;;2.35;1.45;;;;;;;21.79;77.52;100975.81;6227289;28;20045;-73
2023/07/16 10:21:38;;;;;;;3.10;1.40;;;;;;;21.81;77.12;100978.34;6227165;28;20044;-73
2023/07/16 10:24:39;;;;;;;2.17;1.38;;;;;;;21.91;80.62;100979.97;6225586;28;20128;-72
2023/07/16 10:27:41;;;;;;;5.32;2.08;;;;;;;21.99;78.67;100976.56;6227124;28;20050;-73
2023/07/16 10:30:42;;;;;;;3.70;1.50;;;;;;;22.09;76.42;100965.78;6226738;28;20049;-72
2023/07/16 10:33:44;;;;;;;3.67;1.70;;;;;;;22.04;61.13;100983.13;6226513;28;20042;-73
2023/07/16 10:36:46;;;;;;;3.97;2.10;;;;;;;21.99;61.78;100979.22;6226745;28;20076;-72
2023/07/16 10:39:49;;;;;;;3.78;1.20;;;;;;;21.94;62.43;100982.34;6226865;28;20041;-73
2023/07/16 10:42:53;;;;;;;7.53;2.05;;;;;;;21.96;61.53;100988.38;6226074;28;20054;-73
2023/07/16 10:45:55;;;;;;;4.53;1.80;;;;;;;22.06;63.79;100993.69;6226769;28;20053;-73
2023/07/16 10:48:56;;;;;;;4.15;2.03;;;;;;;22.18;62.21;100994.34;6226475;28;20058;-72
2023/07/16 10:52:01;;;;;;;3.00;1.52;;;;;;;22.09;61.75;100995.22;6226265;28;20366;-72
2023/07/16 10:55:03;;;;;;;4.88;1.60;;;;;;;22.00;60.79;101005.84;6225852;28;20061;-72
2023/07/16 10:58:05;;;;;;;2.88;2.00;;;;;;;22.07;63.24;100998.03;6225648;28;20077;-72
2023/07/16 11:01:09;;;;;;;4.50;1.77;;;;;;;22.07;62.15;101000.72;6225029;28;20136;-73
2023/07/16 11:04:10;;;;;;;4.05;1.80;;;;;;;22.07;59.18;100997.19;6225511;28;20373;-72
2023/07/16 11:07:14;;;;;;;5.32;1.40;;;;;;;22.31;61.98;101005.53;6226337;28;20438;-72
2023/07/16 11:10:17;;;;;;;3.92;1.48;;;;;;;22.37;59.24;101004.91;6226047;28;20042;-72
2023/07/16 11:13:18;;;;;;;1.95;1.25;;;;;;;22.36;60.09;101019.31;6225593;28;20435;-72
2023/07/16 11:16:20;;;;;;;1.83;1.52;;;;;;;22.39;62.36;101012.78;6225945;28;20045;-72
2023/07/16 11:19:21;;;;;;;3.55;1.83;;;;;;;22.52;62.25;101019.44;6225842;28;20441;-72
2023/07/16 11:22:29;;;;;;;5.88;1.98;;;;;;;22.72;57.51;101005.91;6225544;28;20084;-73
2023/07/16 11:25:30;;;;;;;3.17;1.70;;;;;;;22.87;58.25;101000.84;6225997;28;20049;-72
2023/07/16 11:28:38;;;;;;;6.10;1.95;;;;;;;22.92;56.07;101030.72;6225883;28;20057;-75
2023/07/16 11:31:40;;;;;;;3.05;1.70;;;;;;;22.85;56.84;101009.06;6225883;28;20173;-73
2023/07/16 11:34:54;;;;;;;2.47;1.52;;;;;;;22.79;57.07;101012.34;6225984;28;20069;-73
2023/07/16 11:37:57;;;;;;;7.20;1.98;;;;;;;22.85;56.91;101021.59;6225743;28;20049;-72
2023/07/16 11:41:01;;;;;;;4.82;2.25;;;;;;;22.72;57.08;101017.47;6246888;23;20434;-72
2023/07/16 11:44:02;;;;;;;5.00;2.15;;;;;;;22.76;56.43;101013.50;6210391;28;20069;-72
2023/07/16 11:47:04;;;;;;;2.53;1.55;;;;;;;22.67;59.06;101021.63;6225787;28;20046;-72
2023/07/16 11:50:07;;;;;;;4.93;2.30;;;;;;;22.61;57.77;101015.00;6225713;28;20056;-71
2023/07/16 11:53:10;;;;;;;4.72;2.20;;;;;;;22.69;59.28;101019.63;6245979;28;20412;-71
2023/07/16 11:56:11;;;;;;;5.63;1.70;;;;;;;22.64;56.84;101021.91;6250127;28;20056;-71
2023/07/16 11:59:12;;;;;;;4.80;1.80;;;;;;;22.53;54.41;101020.31;6250334;28;20057;-72
2023/07/16 12:02:14;;;;;;;3.05;2.10;;;;;;;22.53;55.24;101018.47;6249615;28;20434;-73
2023/07/16 12:05:15;;;;;;;4.22;1.95;;;;;;;22.53;55.13;101026.50;6247857;28;20045;-72
2023/07/16 12:08:18;;;;;;;3.92;1.55;;;;;;;22.56;55.29;101033.38;6249828;28;20041;-71
2023/07/16 12:11:19;;;;;;;5.68;1.83;;;;;;;22.57;54.60;101037.75;6249820;28;20072;-72
2023/07/16 12:14:21;;;;;;;4.55;1.70;;;;;;;22.71;55.49;101033.69;6252670;28;20042;-72
2023/07/16 12:17:22;;;;;;;2.20;1.42;;;;;;;23.15;52.34;101041.78;6254581;28;20358;-74
2023/07/16 12:20:24;;;;;;;4.78;1.60;;;;;;;23.21;51.94;101041.16;6254801;28;20045;-73
2023/07/16 12:23:26;;;;;;;2.95;1.40;;;;;;;23.20;54.52;101037.63;6254547;28;20048;-72
2023/07/16 12:26:28;;;;;;;3.08;1.55;;;;;;;23.06;53.07;101032.84;6254629;28;20353;-73
2023/07/16 12:29:30;;;;;;;4.38;1.45;;;;;;;22.96;54.37;101045.50;6254563;28;20046;-71
2023/07/16 12:32:31;;;;;;;3.58;1.50;;;;;;;22.93;54.67;101038.59;6254157;28;20041;-71
2023/07/16 12:35:33;;;;;;;4.30;1.77;;;;;;;22.91;53.88;101043.28;6254175;28;20049;-72
2023/07/16 12:38:35;;;;;;;3.03;1.52;;;;;;;22.99;55.48;101032.66;6254252;28;20456;-72
2023/07/16 12:41:37;;;;;;;2.20;1.40;;;;;;;22.99;54.93;101037.16;6253858;28;20052;-72
2023/07/16 12:44:38;;;;;;;3.08;1.30;;;;;;;22.95;53.68;101033.94;6254127;28;20049;-71
2023/07/16 12:47:40;;;;;;;4.18;1.50;;;;;;;23.18;52.99;101036.13;6253898;28;20045;-72
2023/07/16 12:50:41;;;;;;;3.67;1.50;;;;;;;23.40;52.00;101045.50;6253975;28;20050;-72
2023/07/16 12:53:45;;;;;;;3.28;1.52;;;;;;;23.87;51.27;101043.25;6253343;28;20060;-72
2023/07/16 12:56:46;;;;;;;3.10;1.65;;;;;;;23.94;49.87;101044.31;6253413;28;20045;-72
2023/07/16 12:59:47;;;;;;;3.53;1.63;;;;;;;24.12;51.87;101059.47;6246081;28;20362;-72
2023/07/16 13:02:49;;;;;;;7.35;2.00;;;;;;;24.14;48.74;101069.06;6245364;28;20045;-74
2023/07/16 13:05:50;;;;;;;2.90;1.13;;;;;;;23.94;49.35;101057.75;6253777;28;20045;-71
2023/07/16 13:08:53;;;;;;;4.53;1.50;;;;;;;23.98;48.93;101059.09;6253410;28;20065;-73
2023/07/16 13:11:54;;;;;;;3.60;1.45;;;;;;;23.75;49.25;101052.59;6253321;28;20053;-74
2023/07/16 13:14:55;;;;;;;2.10;1.25;;;;;;;23.83;49.35;101054.47;6253149;28;20045;-73
2023/07/16 13:17:57;;;;;;;3.65;1.38;;;;;;;24.24;51.75;101067.06;6253245;28;20358;-72
2023/07/16 13:20:58;;;;;;;3.47;1.40;;;;;;;24.47;49.38;101064.63;6253199;28;20053;-71
2023/07/16 13:24:01;;;;;;;2.17;1.25;;;;;;;24.18;47.19;101067.72;6253056;28;20049;-76
2023/07/16 13:27:03;;;;;;;3.58;1.85;;;;;;;24.15;49.38;101068.03;6252433;28;20061;-71
2023/07/16 13:30:05;;;;;;;2.08;1.40;;;;;;;23.96;47.82;101074.50;6253189;28;20081;-75
2023/07/16 13:33:07;;;;;;;4.43;2.20;;;;;;;23.90;48.00;101063.59;6252659;28;20049;-71
2023/07/16 13:36:08;;;;;;;3.88;2.10;;;;;;;23.89;49.39;101068.13;6252842;28;20057;-74
2023/07/16 13:39:13;;;;;;;9.00;2.22;;;;;;;23.83;49.69;101066.06;6252920;28;20057;-71
2023/07/16 13:42:14;;;;;;;3.42;1.20;;;;;;;23.87;49.64;101080.84;6252205;28;20045;-73
2023/07/16 13:45:15;;;;;;;4.85;1.45;;;;;;;23.92;47.49;101077.69;6252805;28;20050;-73
2023/07/16 13:48:17;;;;;;;4.50;1.55;;;;;;;23.88;47.25;101073.63;6252532;28;20041;-72
2023/07/16 13:51:18;;;;;;;3.35;1.70;;;;;;;23.90;47.12;101079.69;6252645;28;20061;-73
2023/07/16 13:54:21;;;;;;;1.42;1.23;;;;;;;23.85;47.88;101088.22;6251971;28;20037;-72
2023/07/16 13:57:22;;;;;;;4.78;1.20;;;;;;;23.91;47.75;101082.22;6252616;28;20042;-73
2023/07/16 14:00:24;;;;;;;2.67;1.33;;;;;;;23.93;48.35;101071.31;6252175;28;20067;-72